createdAt,value
2018-11-03T00:02:16.714Z,21.93
2018-11-03T00:04:45.415Z,23.62
2018-11-03T00:07:13.495Z,22.27
2018-11-03T00:09:40.861Z,22.62
2018-11-03T00:12:08.596Z,21.75
2018-11-03T00:14:35.922Z,22.73
2018-11-03T00:17:09.033Z,21.53
2018-11-03T00:19:40.455Z,22.43
2018-11-03T00:22:09.735Z,26.33
2018-11-03T00:28:10.405Z,22.33
2018-11-03T00:30:41.338Z,22.22
2018-11-03T00:33:11.912Z,27.77
2018-11-03T00:35:42.954Z,25.05
2018-11-03T00:38:11.321Z,23.38
2018-11-03T00:40:40.622Z,25.88
2018-11-03T00:43:08.851Z,22.58
2018-11-03T00:45:38.353Z,23.93
2018-11-03T00:48:06.299Z,26.23
2018-11-03T00:50:36.832Z,23.17
2018-11-03T00:53:09.381Z,23.35
2018-11-03T00:55:37.146Z,27.85
2018-11-03T00:59:07.957Z,27.95
2018-11-03T01:01:36.554Z,22.90
2018-11-03T01:04:04.384Z,26.27
2018-11-03T01:06:33.292Z,27.67
2018-11-03T01:09:01.337Z,27.62
2018-11-03T01:11:29.246Z,26.30
2018-11-03T01:14:01.375Z,25.85
2018-11-03T01:16:31.493Z,26.77
2018-11-03T01:19:00.291Z,24.95
2018-11-03T01:21:28.563Z,30.23
2018-11-03T01:23:58.138Z,24.77
2018-11-03T01:26:25.618Z,27.60
2018-11-03T01:28:56.847Z,29.03
2018-11-03T01:31:24.762Z,27.80
2018-11-03T01:33:54.215Z,26.68
2018-11-03T01:36:22.972Z,27.83
2018-11-03T01:38:56.083Z,28.20
2018-11-03T01:41:27.473Z,27.27
2018-11-03T01:44:01.306Z,26.87
2018-11-03T01:46:29.664Z,27.27
2018-11-03T01:48:58.564Z,24.23
2018-11-03T01:51:28.626Z,24.17
2018-11-03T01:53:56.617Z,24.52
2018-11-03T01:56:27.563Z,28.30
2018-11-03T01:58:55.796Z,26.35
2018-11-03T02:01:26.316Z,29.90
2018-11-03T02:03:55.000Z,29.75
2018-11-03T02:06:23.391Z,29.03
2018-11-03T02:08:51.513Z,29.75
2018-11-03T02:11:20.640Z,28.75
2018-11-03T02:13:48.457Z,33.53
2018-11-03T02:16:16.528Z,29.25
2018-11-03T02:18:44.097Z,30.45
2018-11-03T02:21:12.155Z,29.92
2018-11-03T02:23:41.898Z,34.03
2018-11-03T02:26:10.753Z,28.23
2018-11-03T02:28:38.049Z,27.27
2018-11-03T02:31:05.870Z,28.77
2018-11-03T02:33:34.163Z,31.30
2018-11-03T02:36:01.722Z,30.37
2018-11-03T02:38:29.980Z,27.82
2018-11-03T02:40:57.974Z,31.55
2018-11-03T02:43:27.061Z,32.17
2018-11-03T02:45:55.599Z,32.20
2018-11-03T02:48:25.047Z,34.83
2018-11-03T02:50:53.152Z,32.53
2018-11-03T02:53:21.580Z,34.00
2018-11-03T02:55:50.699Z,31.30
2018-11-03T02:58:19.297Z,33.23
2018-11-03T03:00:46.508Z,32.77
2018-11-03T03:03:13.804Z,31.42
2018-11-03T03:05:41.203Z,29.27
2018-11-03T03:08:08.900Z,30.72
2018-11-03T03:10:36.410Z,29.13
2018-11-03T03:13:04.156Z,29.83
2018-11-03T03:15:31.469Z,31.05
2018-11-03T03:17:58.755Z,33.60
2018-11-03T03:20:26.185Z,33.23
2018-11-03T03:22:53.643Z,34.43
2018-11-03T03:25:21.090Z,35.78
2018-11-03T03:27:48.439Z,35.48
2018-11-03T03:30:15.617Z,36.87
2018-11-03T03:32:44.353Z,40.43
2018-11-03T03:35:11.776Z,33.70
2018-11-03T03:37:39.108Z,35.23
2018-11-03T03:40:07.159Z,34.43
2018-11-03T03:42:34.466Z,32.65
2018-11-03T03:45:01.918Z,31.75
2018-11-03T03:47:29.185Z,35.77
2018-11-03T03:49:56.572Z,34.45
2018-11-03T03:52:23.949Z,33.20
2018-11-03T03:54:51.473Z,35.43
2018-11-03T03:57:19.098Z,34.10
2018-11-03T03:59:46.893Z,34.73
2018-11-03T04:02:14.400Z,38.67
2018-11-03T04:04:41.801Z,37.60
2018-11-03T04:07:09.200Z,37.43
2018-11-03T04:09:36.733Z,37.42
2018-11-03T04:12:04.833Z,32.60
2018-11-03T04:14:33.011Z,35.37
2018-11-03T04:17:00.849Z,37.27
2018-11-03T04:19:28.256Z,35.77
2018-11-03T04:21:55.504Z,33.17
2018-11-03T04:24:23.216Z,35.80
2018-11-03T04:26:50.849Z,39.43
2018-11-03T04:29:18.194Z,35.83
2018-11-03T04:31:45.661Z,38.80
2018-11-03T04:34:20.025Z,43.25
2018-11-03T04:36:48.134Z,37.63
2018-11-03T04:39:15.442Z,38.17
2018-11-03T04:41:42.968Z,35.97
2018-11-03T04:44:10.421Z,36.17
2018-11-03T04:46:37.722Z,34.87
2018-11-03T04:49:04.939Z,39.83
2018-11-03T04:51:34.172Z,37.73
2018-11-03T04:54:01.990Z,40.67
2018-11-03T04:56:29.595Z,42.03
2018-11-03T04:58:57.513Z,38.00
2018-11-03T05:01:25.377Z,38.20
2018-11-03T05:03:52.908Z,41.10
2018-11-03T05:06:20.286Z,33.85
2018-11-03T05:08:48.088Z,38.67
2018-11-03T05:11:15.577Z,33.80
2018-11-03T05:13:43.927Z,40.60
2018-11-03T05:16:11.456Z,36.50
2018-11-03T05:18:39.240Z,35.33
2018-11-03T05:21:06.990Z,37.47
2018-11-03T05:23:34.414Z,39.78
2018-11-03T05:26:01.930Z,41.10
2018-11-03T05:28:29.300Z,33.90
2018-11-03T05:30:56.834Z,44.88
2018-11-03T05:33:24.734Z,36.23
2018-11-03T05:35:51.860Z,36.70
2018-11-03T05:38:19.665Z,36.50
2018-11-03T05:40:48.018Z,42.17
2018-11-03T05:43:15.648Z,36.77
2018-11-03T05:45:42.859Z,40.17
2018-11-03T05:48:10.172Z,39.63
2018-11-03T05:50:37.708Z,38.13
2018-11-03T05:53:05.729Z,36.47
2018-11-03T05:55:33.267Z,42.90
2018-11-03T05:58:00.708Z,43.57
2018-11-03T06:00:29.055Z,38.43
2018-11-03T06:02:57.808Z,42.93
2018-11-03T06:05:25.494Z,46.60
2018-11-03T06:07:53.128Z,38.40
2018-11-03T06:10:20.675Z,39.00
2018-11-03T06:12:48.266Z,37.67
2018-11-03T06:15:15.919Z,39.40
2018-11-03T06:17:43.387Z,43.13
2018-11-03T06:20:10.726Z,38.77
2018-11-03T06:22:38.152Z,42.50
2018-11-03T06:25:06.660Z,41.73
2018-11-03T06:27:34.034Z,38.10
2018-11-03T06:30:01.739Z,39.70
2018-11-03T06:32:29.123Z,47.62
2018-11-03T06:34:56.634Z,40.63
2018-11-03T06:37:24.063Z,40.07
2018-11-03T06:39:51.749Z,40.47
2018-11-03T06:42:19.631Z,40.30
2018-11-03T06:44:47.200Z,39.37
2018-11-03T06:47:14.789Z,36.23
2018-11-03T06:49:42.436Z,35.43
2018-11-03T06:52:09.819Z,38.00
2018-11-03T06:54:37.032Z,38.67
2018-11-03T06:57:04.660Z,35.83
2018-11-03T06:59:31.940Z,35.55
2018-11-03T07:01:59.191Z,38.73
2018-11-03T07:04:27.324Z,37.10
2018-11-03T07:06:54.877Z,35.63
2018-11-03T07:09:22.206Z,37.20
2018-11-03T07:11:50.309Z,39.25
2018-11-03T07:14:18.159Z,35.17
2018-11-03T07:16:45.836Z,35.23
2018-11-03T07:19:13.156Z,39.00
2018-11-03T07:21:40.475Z,38.05
2018-11-03T07:24:07.781Z,38.05
2018-11-03T07:26:35.779Z,38.75
2018-11-03T07:29:03.187Z,32.38
2018-11-03T07:31:30.869Z,35.17
2018-11-03T07:33:58.276Z,37.07
2018-11-03T07:36:25.656Z,40.73
2018-11-03T07:38:53.617Z,33.08
2018-11-03T07:41:21.338Z,35.30
2018-11-03T07:43:48.744Z,35.95
2018-11-03T07:46:16.119Z,38.53
2018-11-03T07:48:44.006Z,35.13
2018-11-03T07:51:11.648Z,35.80
2018-11-03T07:53:39.304Z,35.17
2018-11-03T07:56:06.580Z,39.63
2018-11-03T07:58:34.130Z,35.85
2018-11-03T08:01:02.340Z,39.15
2018-11-03T08:03:29.887Z,36.00
2018-11-03T08:05:57.639Z,38.83
2018-11-03T08:08:24.953Z,44.80
2018-11-03T08:10:52.611Z,36.87
2018-11-03T08:13:20.291Z,41.60
2018-11-03T08:15:47.856Z,41.48
2018-11-03T08:18:15.812Z,37.98
2018-11-03T08:20:43.435Z,43.98
2018-11-03T08:23:10.925Z,43.48
2018-11-03T08:25:38.767Z,43.10
2018-11-03T08:28:06.154Z,37.48
2018-11-03T08:30:33.729Z,38.33
2018-11-03T08:33:02.218Z,37.33
2018-11-03T08:35:29.549Z,39.55
2018-11-03T08:37:57.603Z,38.23
2018-11-03T08:40:25.482Z,30.90
2018-11-03T08:42:53.325Z,33.90
2018-11-03T08:45:20.881Z,35.80
2018-11-03T08:47:48.377Z,38.15
2018-11-03T08:50:15.816Z,40.85
2018-11-03T08:52:43.859Z,38.17
2018-11-03T08:55:12.794Z,34.33
2018-11-03T08:57:40.198Z,39.92
2018-11-03T09:00:12.263Z,40.07
2018-11-03T09:02:42.756Z,39.00
2018-11-03T09:05:11.157Z,41.73
2018-11-03T09:07:38.830Z,41.05
2018-11-03T09:10:09.781Z,39.83
2018-11-03T09:12:37.249Z,43.55
2018-11-03T09:15:06.936Z,47.27
2018-11-03T09:17:36.312Z,43.83
2018-11-03T09:20:04.090Z,40.95
2018-11-03T09:22:31.950Z,41.70
2018-11-03T09:24:59.200Z,43.95
2018-11-03T09:27:26.593Z,38.90
2018-11-03T09:29:54.334Z,38.15
2018-11-03T09:32:22.063Z,40.98
2018-11-03T09:34:49.819Z,37.53
2018-11-03T09:37:18.454Z,37.20
2018-11-03T09:39:46.354Z,32.95
2018-11-03T09:42:14.144Z,38.00
2018-11-03T09:44:42.799Z,34.03
2018-11-03T09:47:10.221Z,42.65
2018-11-03T09:49:37.565Z,35.98
2018-11-03T09:52:06.078Z,33.50
2018-11-03T09:54:40.133Z,31.17
2018-11-03T09:57:08.010Z,29.82
2018-11-03T09:59:35.785Z,16.37
2018-11-03T10:02:03.518Z,20.27
2018-11-03T10:04:31.416Z,20.25
2018-11-03T10:06:59.103Z,21.85
2018-11-03T10:09:26.282Z,15.65
2018-11-03T10:12:00.429Z,19.92
2018-11-03T10:14:30.400Z,19.77
2018-11-03T10:16:57.814Z,19.80
2018-11-03T10:19:25.393Z,20.48
2018-11-03T10:21:53.735Z,18.35
2018-11-03T10:24:21.122Z,20.55
2018-11-03T10:26:48.770Z,16.48
2018-11-03T10:29:17.396Z,14.83
2018-11-03T10:31:45.041Z,15.63
2018-11-03T10:34:12.708Z,16.55
2018-11-03T10:36:40.427Z,15.10
2018-11-03T10:39:09.890Z,17.17
2018-11-03T10:41:38.010Z,16.05
2018-11-03T10:44:06.272Z,18.10
2018-11-03T10:46:34.082Z,16.73
2018-11-03T10:49:02.212Z,19.15
2018-11-03T10:51:29.714Z,15.48
2018-11-03T10:53:57.134Z,18.98
2018-11-03T10:56:24.296Z,16.80
2018-11-03T10:58:51.536Z,15.08
2018-11-03T11:01:24.374Z,14.98
2018-11-03T11:03:57.334Z,15.15
2018-11-03T11:06:30.196Z,19.80
2018-11-03T11:09:03.171Z,15.13
2018-11-03T11:11:36.267Z,13.15
2018-11-03T11:14:03.546Z,16.15
2018-11-03T11:16:31.375Z,15.63
2018-11-03T11:18:58.640Z,19.23
2018-11-03T11:21:25.992Z,13.10
2018-11-03T11:23:53.543Z,17.10
2018-11-03T11:26:20.796Z,15.65
2018-11-03T11:28:48.345Z,16.97
2018-11-03T11:31:16.501Z,14.35
2018-11-03T11:33:44.789Z,16.55
2018-11-03T11:36:12.576Z,17.35
2018-11-03T11:38:40.478Z,19.60
2018-11-03T11:41:08.603Z,12.73
2018-11-03T11:43:36.370Z,15.75
2018-11-03T11:46:03.850Z,13.83
2018-11-03T11:48:31.102Z,13.80
2018-11-03T11:50:59.192Z,17.90
2018-11-03T11:53:26.758Z,13.43
2018-11-03T11:55:54.366Z,15.95
2018-11-03T11:58:22.684Z,22.20
2018-11-03T12:00:50.043Z,14.30
2018-11-03T12:03:17.176Z,15.15
2018-11-03T12:05:44.495Z,17.07
2018-11-03T12:08:12.241Z,12.78
2018-11-03T12:10:46.434Z,13.30
2018-11-03T12:13:14.205Z,16.65
2018-11-03T12:15:42.335Z,16.02
2018-11-03T12:18:09.789Z,16.57
2018-11-03T12:20:37.402Z,15.93
2018-11-03T12:23:04.918Z,18.15
2018-11-03T12:25:32.832Z,13.43
2018-11-03T12:28:00.331Z,14.03
2018-11-03T12:30:27.762Z,13.20
2018-11-03T12:32:57.267Z,12.10
2018-11-03T12:35:24.949Z,12.95
2018-11-03T12:37:52.295Z,15.08
2018-11-03T12:40:20.662Z,15.88
2018-11-03T12:42:48.133Z,12.23
2018-11-03T12:45:15.455Z,12.63
2018-11-03T12:47:43.468Z,10.95
2018-11-03T12:50:12.671Z,16.15
2018-11-03T12:52:41.014Z,16.15
2018-11-03T12:55:09.075Z,13.00
2018-11-03T12:57:36.883Z,15.50
2018-11-03T13:00:05.353Z,19.07
2018-11-03T13:02:32.844Z,15.50
2018-11-03T13:05:00.602Z,14.35
2018-11-03T13:07:29.899Z,14.55
2018-11-03T13:09:57.373Z,14.68
2018-11-03T13:12:24.912Z,12.63
2018-11-03T13:14:52.537Z,13.65
2018-11-03T13:17:20.144Z,14.18
2018-11-03T13:19:47.715Z,12.68
2018-11-03T13:22:15.279Z,13.58
2018-11-03T13:24:43.019Z,12.55
2018-11-03T13:27:10.924Z,10.78
2018-11-03T13:29:38.173Z,11.00
2018-11-03T13:32:05.316Z,18.45
2018-11-03T13:34:33.494Z,11.38
2018-11-03T13:37:00.898Z,13.80
2018-11-03T13:39:28.065Z,11.73
2018-11-03T13:41:55.575Z,11.08
2018-11-03T13:44:22.839Z,11.35
2018-11-03T13:46:50.528Z,12.37
2018-11-03T13:49:17.975Z,11.97
2018-11-03T13:51:46.026Z,11.35
2018-11-03T13:54:13.497Z,11.80
2018-11-03T13:56:41.300Z,9.90
2018-11-03T13:59:09.242Z,12.70
2018-11-03T14:01:37.413Z,10.10
2018-11-03T14:04:04.918Z,11.10
2018-11-03T14:06:32.808Z,9.13
2018-11-03T14:09:00.964Z,10.28
2018-11-03T14:11:28.780Z,13.48
2018-11-03T14:13:56.245Z,9.70
2018-11-03T14:16:23.750Z,7.90
2018-11-03T14:18:51.192Z,13.28
2018-11-03T14:21:18.548Z,11.30
2018-11-03T14:23:46.318Z,11.65
2018-11-03T14:26:14.144Z,8.05
2018-11-03T14:28:41.460Z,12.18
2018-11-03T14:31:08.751Z,12.78
2018-11-03T14:33:37.125Z,11.08
2018-11-03T14:36:05.133Z,13.13
2018-11-03T14:38:33.468Z,9.50
2018-11-03T14:41:01.209Z,9.00
2018-11-03T14:43:29.703Z,13.93
2018-11-03T14:46:00.029Z,8.33
2018-11-03T14:48:28.053Z,15.28
2018-11-03T14:50:55.411Z,10.40
2018-11-03T14:53:23.508Z,12.03
2018-11-03T14:55:50.866Z,9.80
2018-11-03T14:58:18.321Z,9.10
2018-11-03T15:00:46.128Z,10.23
2018-11-03T15:03:14.171Z,7.65
2018-11-03T15:05:42.220Z,10.25
2018-11-03T15:08:10.505Z,8.95
2018-11-03T15:10:39.336Z,10.25
2018-11-03T15:13:07.992Z,10.40
2018-11-03T15:15:35.568Z,9.65
2018-11-03T15:18:03.061Z,11.75
2018-11-03T15:20:30.959Z,11.18
2018-11-03T15:22:59.934Z,10.65
2018-11-03T15:25:27.492Z,9.20
2018-11-03T15:27:55.260Z,10.35
2018-11-03T15:30:23.011Z,9.10
2018-11-03T15:32:50.737Z,15.88
2018-11-03T15:35:18.358Z,9.55
2018-11-03T15:37:46.701Z,16.15
2018-11-03T15:40:14.926Z,10.25
2018-11-03T15:42:43.246Z,14.40
2018-11-03T15:45:15.584Z,12.45
2018-11-03T15:47:47.352Z,11.85
2018-11-03T15:50:15.388Z,13.38
2018-11-03T15:52:43.106Z,10.05
2018-11-03T15:55:10.364Z,17.17
2018-11-03T15:57:38.053Z,13.55
2018-11-03T16:00:09.266Z,11.00
2018-11-03T16:02:36.567Z,12.23
2018-11-03T16:05:04.561Z,16.80
2018-11-03T16:07:31.651Z,9.68
2018-11-03T16:09:59.207Z,12.28
2018-11-03T16:12:28.393Z,15.47
2018-11-03T16:14:56.436Z,15.58
2018-11-03T16:17:24.140Z,20.12
2018-11-03T16:19:52.881Z,18.12
2018-11-03T16:22:20.468Z,19.10
2018-11-03T16:24:48.524Z,16.12
2018-11-03T16:27:21.045Z,14.13
2018-11-03T16:29:51.031Z,13.90
2018-11-03T16:32:25.636Z,15.15
2018-11-03T16:34:53.478Z,12.77
2018-11-03T16:37:20.908Z,9.95
2018-11-03T16:39:48.944Z,11.05
2018-11-03T16:42:17.712Z,14.80
2018-11-03T16:44:46.708Z,9.48
2018-11-03T16:47:14.420Z,12.65
2018-11-03T16:49:44.058Z,12.78
2018-11-03T16:52:12.086Z,12.73
2018-11-03T16:54:41.174Z,10.20
2018-11-03T16:57:09.244Z,12.70
2018-11-03T16:59:37.663Z,14.83
2018-11-03T17:02:05.977Z,13.75
2018-11-03T17:04:33.637Z,9.18
2018-11-03T17:07:02.247Z,13.08
2018-11-03T17:09:30.001Z,14.05
2018-11-03T17:11:58.868Z,12.47
2018-11-03T17:14:26.647Z,17.30
2018-11-03T17:16:55.372Z,14.05
2018-11-03T17:19:54.535Z,14.73
2018-11-03T17:22:22.460Z,15.97
2018-11-03T17:24:52.612Z,12.25
2018-11-03T17:27:20.123Z,15.13
2018-11-03T17:29:48.476Z,13.10
2018-11-03T17:32:17.450Z,12.13
2018-11-03T17:34:45.856Z,15.85
2018-11-03T17:37:15.522Z,14.07
2018-11-03T17:39:43.902Z,10.70
2018-11-03T17:42:11.655Z,18.92
2018-11-03T17:44:39.480Z,13.93
2018-11-03T17:47:08.513Z,18.65
2018-11-03T17:49:38.167Z,20.05
2018-11-03T17:52:10.398Z,15.80
2018-11-03T17:54:38.471Z,18.05
2018-11-03T17:57:07.761Z,20.40
2018-11-03T17:59:37.567Z,14.47
2018-11-03T18:02:06.925Z,16.10
2018-11-03T18:04:37.215Z,18.45
2018-11-03T18:07:05.782Z,16.40
2018-11-03T18:09:33.932Z,20.50
2018-11-03T18:12:03.800Z,23.47
2018-11-03T18:14:38.096Z,23.20
2018-11-03T18:17:06.529Z,21.57
2018-11-03T18:19:37.445Z,21.68
2018-11-03T18:22:07.906Z,47.25
2018-11-03T18:24:37.785Z,21.10
2018-11-03T18:27:08.155Z,25.32
2018-11-03T18:29:37.120Z,21.62
2018-11-03T18:32:07.995Z,18.20
2018-11-03T18:34:37.610Z,18.10
2018-11-03T18:37:07.467Z,21.75
2018-11-03T18:39:37.906Z,23.23
2018-11-03T18:42:08.707Z,22.93
2018-11-03T18:44:39.607Z,23.10
2018-11-03T18:47:08.029Z,22.82
2018-11-03T18:49:37.699Z,22.03
2018-11-03T18:52:08.329Z,29.60
2018-11-03T18:54:38.005Z,22.22
2018-11-03T18:57:06.017Z,25.48
2018-11-03T18:59:37.745Z,19.42
2018-11-03T19:02:05.608Z,21.97
2018-11-03T19:04:38.189Z,20.70
2018-11-03T19:07:07.848Z,19.00
2018-11-03T19:09:39.292Z,20.57
2018-11-03T19:12:18.542Z,27.17
2018-11-03T19:14:46.419Z,25.70
2018-11-03T19:17:14.854Z,20.90
2018-11-03T19:19:45.533Z,26.40
2018-11-03T19:22:15.340Z,27.73
2018-11-03T19:24:43.334Z,25.00
2018-11-03T19:27:12.437Z,26.50
2018-11-03T19:29:40.434Z,22.13
2018-11-03T19:32:09.371Z,25.17
2018-11-03T19:34:42.196Z,27.32
2018-11-03T19:37:13.763Z,25.77
2018-11-03T19:39:42.809Z,28.70
2018-11-03T19:42:10.810Z,27.40
2018-11-03T19:44:40.130Z,25.02
2018-11-03T19:47:08.337Z,23.50
2018-11-03T19:49:38.427Z,29.00
2018-11-03T19:52:05.934Z,33.97
2018-11-03T19:54:33.881Z,33.83
2018-11-03T19:57:01.467Z,33.47
2018-11-03T19:59:30.107Z,25.90
2018-11-03T20:01:57.667Z,31.70
2018-11-03T20:04:30.778Z,31.30
2018-11-03T20:06:59.336Z,26.95
2018-11-03T20:09:28.798Z,29.63
2018-11-03T20:12:00.233Z,33.05
2018-11-03T20:14:32.008Z,34.10
2018-11-03T20:17:02.618Z,27.37
2018-11-03T20:19:31.303Z,28.33
2018-11-03T20:21:58.805Z,30.57
2018-11-03T20:24:27.470Z,30.63
2018-11-03T20:26:57.371Z,33.27
2018-11-03T20:29:26.321Z,29.13
2018-11-03T20:31:54.853Z,24.03
2018-11-03T20:34:25.077Z,28.73
2018-11-03T20:36:55.966Z,32.13
2018-11-03T20:39:24.892Z,33.50
2018-11-03T20:44:00.189Z,26.97
2018-11-03T20:46:29.852Z,26.37
2018-11-03T20:48:57.702Z,31.93
2018-11-03T20:51:26.396Z,30.10
2018-11-03T20:53:55.703Z,27.80
2018-11-03T20:56:23.790Z,29.30
2018-11-03T20:58:51.464Z,30.80
2018-11-03T21:01:23.425Z,30.23
2018-11-03T21:04:03.595Z,27.57
2018-11-03T21:06:33.454Z,26.77
2018-11-03T21:09:05.484Z,36.90
2018-11-03T21:11:35.228Z,31.03
2018-11-03T21:14:03.789Z,30.47
2018-11-03T21:16:32.022Z,31.10
2018-11-03T21:19:00.389Z,26.07
2018-11-03T21:21:28.276Z,32.20
2018-11-03T21:23:56.428Z,31.00
2018-11-03T21:26:26.267Z,27.70
2018-11-03T21:28:54.743Z,31.93
2018-11-03T21:31:26.338Z,31.83
2018-11-03T21:33:55.952Z,28.73
2018-11-03T21:36:25.813Z,31.60
2018-11-03T21:38:55.062Z,29.00
2018-11-03T21:41:26.052Z,27.63
2018-11-03T21:43:54.215Z,28.20
2018-11-03T21:46:21.937Z,31.33
2018-11-03T21:48:51.198Z,29.93
2018-11-03T21:51:20.468Z,28.63
2018-11-03T21:53:53.998Z,30.97
2018-11-03T21:56:23.490Z,29.83
2018-11-03T21:58:50.938Z,31.23
2018-11-03T22:01:19.560Z,25.30
2018-11-03T22:03:47.924Z,26.10
2018-11-03T22:06:15.513Z,32.90
2018-11-03T22:08:43.919Z,29.82
2018-11-03T22:11:12.513Z,32.23
2018-11-03T22:13:40.618Z,32.47
2018-11-03T22:16:09.093Z,30.23
2018-11-03T22:18:36.959Z,26.87
2018-11-03T22:21:06.333Z,27.83
2018-11-03T22:23:34.981Z,23.10
2018-11-03T22:28:44.727Z,28.43
2018-11-03T22:31:12.167Z,25.73
2018-11-03T22:33:40.585Z,24.30
2018-11-03T22:36:12.707Z,30.40
2018-11-03T22:38:41.275Z,27.27
2018-11-03T22:41:10.091Z,30.60
2018-11-03T22:43:38.718Z,33.60
2018-11-03T22:46:06.294Z,28.97
2018-11-03T22:48:33.807Z,26.20
2018-11-03T22:51:03.608Z,29.00
2018-11-03T22:53:31.945Z,28.73
2018-11-03T22:56:00.060Z,27.43
2018-11-03T22:58:28.612Z,31.45
2018-11-03T23:00:57.180Z,31.03
2018-11-03T23:03:25.229Z,27.27
2018-11-03T23:05:52.652Z,28.07
2018-11-03T23:08:20.777Z,30.57
2018-11-03T23:10:50.139Z,25.50
2018-11-03T23:13:17.517Z,33.53
2018-11-03T23:15:48.050Z,35.57
2018-11-03T23:18:15.233Z,30.07
2018-11-03T23:20:42.380Z,34.87
2018-11-03T23:23:09.452Z,34.73
2018-11-03T23:25:36.655Z,35.67
2018-11-03T23:28:04.168Z,33.93
2018-11-03T23:30:31.337Z,29.60
2018-11-03T23:32:58.397Z,34.50
2018-11-03T23:35:26.017Z,29.30
2018-11-03T23:37:53.542Z,33.67
2018-11-03T23:40:21.433Z,36.20
2018-11-03T23:42:49.185Z,34.43
2018-11-03T23:45:16.469Z,32.63
2018-11-03T23:47:44.488Z,31.05
2018-11-03T23:50:13.692Z,32.40
2018-11-03T23:52:43.597Z,40.30
2018-11-03T23:55:10.923Z,35.77
2018-11-03T23:57:38.158Z,30.43
